createdAt,value
2023-09-27T00:01:40.060Z,8.03
2023-09-27T00:05:01.884Z,7.83
2023-09-27T00:08:24.390Z,7.30
2023-09-27T00:11:47.050Z,7.73
2023-09-27T00:15:11.457Z,8.70
2023-09-27T00:18:33.049Z,7.90
2023-09-27T00:21:54.535Z,7.80
2023-09-27T00:25:16.274Z,8.40
2023-09-27T00:28:39.154Z,8.17
2023-09-27T00:32:00.557Z,9.37
2023-09-27T00:35:23.972Z,8.83
2023-09-27T00:38:45.949Z,9.47
2023-09-27T00:42:07.313Z,8.63
2023-09-27T00:45:30.023Z,10.43
2023-09-27T00:48:51.836Z,9.73
2023-09-27T00:52:15.251Z,9.80
2023-09-27T00:55:38.099Z,10.27
2023-09-27T00:59:00.382Z,10.73
2023-09-27T01:02:23.614Z,9.57
2023-09-27T01:05:46.288Z,10.33
2023-09-27T01:09:07.760Z,10.33
2023-09-27T01:12:29.509Z,9.73
2023-09-27T01:15:51.015Z,9.70
2023-09-27T01:19:14.067Z,9.30
2023-09-27T01:22:35.576Z,10.10
2023-09-27T01:26:00.207Z,10.80
2023-09-27T01:29:21.970Z,10.33
2023-09-27T01:32:44.111Z,9.63
2023-09-27T01:36:06.736Z,9.50
2023-09-27T01:39:31.484Z,10.33
2023-09-27T01:42:54.533Z,11.90
2023-09-27T01:46:16.066Z,11.20
2023-09-27T01:49:37.632Z,11.47
2023-09-27T01:52:59.551Z,10.47
2023-09-27T01:56:21.081Z,10.70
2023-09-27T01:59:43.721Z,10.10
2023-09-27T02:03:06.576Z,9.93
2023-09-27T02:06:28.059Z,10.27
2023-09-27T02:09:49.872Z,10.67
2023-09-27T02:13:11.299Z,10.97
2023-09-27T02:16:34.881Z,10.20
2023-09-27T02:19:57.083Z,10.87
2023-09-27T02:23:19.073Z,10.50
2023-09-27T02:26:41.410Z,10.40
2023-09-27T02:30:03.577Z,11.87
2023-09-27T02:33:27.410Z,11.33
2023-09-27T02:36:49.861Z,10.93
2023-09-27T02:40:14.565Z,10.97
2023-09-27T02:43:36.841Z,11.33
2023-09-27T02:46:58.492Z,11.27
2023-09-27T02:50:21.637Z,10.97
2023-09-27T02:53:43.468Z,10.50
2023-09-27T02:57:05.382Z,10.20
2023-09-27T03:00:27.770Z,10.93
2023-09-27T03:03:49.883Z,10.47
2023-09-27T03:07:13.018Z,10.37
2023-09-27T03:10:39.109Z,11.03
2023-09-27T03:14:00.923Z,10.60
2023-09-27T03:17:22.747Z,11.60
2023-09-27T03:20:44.677Z,10.43
2023-09-27T03:24:09.528Z,9.87
2023-09-27T03:27:31.103Z,10.90
2023-09-27T03:30:52.345Z,11.17
2023-09-27T03:34:13.756Z,10.13
2023-09-27T03:37:35.805Z,10.23
2023-09-27T03:40:58.700Z,11.10
2023-09-27T03:44:20.180Z,10.37
2023-09-27T03:47:44.291Z,10.67
2023-09-27T03:51:05.809Z,10.67
2023-09-27T03:54:28.374Z,11.27
2023-09-27T03:57:51.270Z,10.77
2023-09-27T04:01:13.510Z,10.53
2023-09-27T04:04:35.018Z,10.83
2023-09-27T04:07:57.001Z,10.43
2023-09-27T04:11:18.994Z,10.07
2023-09-27T04:14:42.086Z,11.77
2023-09-27T04:18:04.025Z,10.70
2023-09-27T04:21:25.693Z,10.30
2023-09-27T04:24:46.961Z,10.63
2023-09-27T04:28:09.283Z,10.50
2023-09-27T04:31:32.040Z,12.90
2023-09-27T04:34:53.797Z,14.23
2023-09-27T04:38:15.963Z,10.77
2023-09-27T04:41:37.575Z,11.13
2023-09-27T04:44:59.012Z,10.97
2023-09-27T04:48:21.909Z,9.93
2023-09-27T04:51:43.389Z,9.60
2023-09-27T04:55:06.193Z,10.57
2023-09-27T04:58:27.966Z,11.00
2023-09-27T05:01:49.390Z,10.63
2023-09-27T05:05:12.655Z,10.07
2023-09-27T05:08:34.320Z,10.57
2023-09-27T05:11:55.648Z,10.27
2023-09-27T05:15:17.373Z,9.87
2023-09-27T05:18:38.971Z,11.00
2023-09-27T05:22:01.895Z,10.80
2023-09-27T05:25:23.796Z,10.43
2023-09-27T05:28:45.760Z,11.30
2023-09-27T05:32:07.580Z,10.40
2023-09-27T05:35:29.158Z,9.83
2023-09-27T05:38:52.425Z,10.57
2023-09-27T05:42:14.359Z,10.20
2023-09-27T05:45:36.003Z,12.57
2023-09-27T05:48:57.747Z,11.10
2023-09-27T05:52:20.219Z,11.23
2023-09-27T05:55:43.389Z,10.50
2023-09-27T05:59:05.017Z,12.23
2023-09-27T06:02:32.240Z,12.47
2023-09-27T06:05:54.691Z,12.67
2023-09-27T06:09:17.548Z,12.37
2023-09-27T06:12:40.889Z,11.77
2023-09-27T06:16:03.042Z,12.07
2023-09-27T06:19:24.430Z,12.23
2023-09-27T06:22:48.344Z,11.87
2023-09-27T06:26:10.974Z,10.73
2023-09-27T06:29:34.353Z,14.13
2023-09-27T06:32:56.496Z,12.67
2023-09-27T06:36:18.286Z,12.10
2023-09-27T06:39:39.707Z,11.77
2023-09-27T06:43:01.100Z,12.80
2023-09-27T06:46:25.849Z,11.90
2023-09-27T06:49:49.024Z,11.27
2023-09-27T06:53:22.506Z,12.53
2023-09-27T06:56:45.852Z,12.47
2023-09-27T07:00:14.225Z,12.33
2023-09-27T07:03:38.177Z,11.57
2023-09-27T07:06:59.869Z,10.63
2023-09-27T07:10:21.587Z,10.67
2023-09-27T07:13:43.333Z,12.50
2023-09-27T07:17:06.083Z,15.83
2023-09-27T07:20:33.850Z,12.07
2023-09-27T07:23:55.453Z,12.90
2023-09-27T07:27:16.812Z,11.63
2023-09-27T07:30:39.172Z,12.00
2023-09-27T07:34:01.740Z,11.53
2023-09-27T07:37:24.777Z,12.20
2023-09-27T07:40:47.942Z,11.77
2023-09-27T07:44:11.217Z,11.20
2023-09-27T07:47:32.649Z,10.47
2023-09-27T07:50:55.555Z,11.23
2023-09-27T07:54:19.389Z,10.57
2023-09-27T07:57:43.425Z,10.17
2023-09-27T08:01:05.962Z,12.83
2023-09-27T08:04:28.257Z,12.10
2023-09-27T08:07:52.034Z,11.17
2023-09-27T08:11:14.775Z,9.00
2023-09-27T08:14:38.135Z,10.77
2023-09-27T08:17:59.920Z,10.53
2023-09-27T08:21:21.473Z,8.27
2023-09-27T08:24:43.241Z,9.67
2023-09-27T08:28:07.605Z,11.13
2023-09-27T08:31:31.589Z,7.77
2023-09-27T08:34:53.094Z,7.17
2023-09-27T08:38:14.575Z,7.53
2023-09-27T08:41:36.113Z,8.37
2023-09-27T08:45:00.013Z,8.07
2023-09-27T08:48:23.838Z,9.53
2023-09-27T08:51:47.128Z,8.93
2023-09-27T08:55:09.948Z,7.63
2023-09-27T08:58:35.235Z,8.20
2023-09-27T09:01:59.804Z,7.10
2023-09-27T09:05:22.088Z,8.87
2023-09-27T09:08:44.577Z,9.97
2023-09-27T09:12:10.175Z,8.23
2023-09-27T09:15:37.406Z,7.73
2023-09-27T09:19:11.813Z,10.30
2023-09-27T09:22:43.145Z,18.93
2023-09-27T09:26:07.036Z,9.00
2023-09-27T09:29:45.775Z,12.07
2023-09-27T09:33:12.234Z,10.27
2023-09-27T09:36:35.705Z,8.67
2023-09-27T09:40:15.804Z,9.43
2023-09-27T09:43:38.770Z,8.10
2023-09-27T09:47:12.306Z,8.87
2023-09-27T09:50:35.097Z,10.53
2023-09-27T09:54:00.168Z,8.03
2023-09-27T09:57:31.525Z,7.83
2023-09-27T10:01:04.081Z,7.80
2023-09-27T10:04:27.277Z,7.10
2023-09-27T10:07:49.918Z,13.53
2023-09-27T10:11:13.628Z,24.13
2023-09-27T10:14:38.688Z,8.23
2023-09-27T10:18:31.137Z,10.63
2023-09-27T10:22:05.321Z,5.93
2023-09-27T10:25:35.478Z,7.50
2023-09-27T10:29:16.537Z,6.17
2023-09-27T10:32:38.553Z,6.00
2023-09-27T10:36:31.510Z,7.40
2023-09-27T10:40:21.177Z,3.93
2023-09-27T10:43:44.608Z,5.17
2023-09-27T10:47:07.804Z,5.27
2023-09-27T10:50:31.669Z,5.90
2023-09-27T10:53:55.018Z,6.63
2023-09-27T10:57:17.578Z,5.37
2023-09-27T11:00:52.426Z,4.50
2023-09-27T11:04:14.917Z,4.90
2023-09-27T11:07:50.388Z,7.43
2023-09-27T11:11:13.081Z,6.50
2023-09-27T11:14:35.881Z,4.57
2023-09-27T11:17:57.802Z,4.43
2023-09-27T11:21:21.249Z,7.57
2023-09-27T11:24:42.793Z,4.63
2023-09-27T11:28:04.865Z,6.27
2023-09-27T11:31:27.609Z,5.00
2023-09-27T11:34:56.427Z,5.00
2023-09-27T11:38:19.441Z,6.60
2023-09-27T11:41:41.245Z,6.07
2023-09-27T11:45:05.283Z,7.90
2023-09-27T11:48:34.443Z,7.70
2023-09-27T11:51:56.317Z,6.03
2023-09-27T11:55:20.101Z,5.20
2023-09-27T11:58:43.150Z,6.77
2023-09-27T12:02:16.642Z,5.13
2023-09-27T12:05:47.324Z,5.03
2023-09-27T12:09:09.541Z,5.13
2023-09-27T12:12:32.358Z,5.20
2023-09-27T12:15:54.085Z,8.25
2023-09-27T12:19:15.573Z,8.07
2023-09-27T12:22:37.073Z,5.25
2023-09-27T12:25:59.131Z,5.35
2023-09-27T12:29:22.117Z,4.53
2023-09-27T12:32:43.976Z,5.05
2023-09-27T12:36:06.152Z,3.67
2023-09-27T12:39:27.781Z,14.98
2023-09-27T12:42:49.247Z,4.50
2023-09-27T12:46:12.029Z,5.13
2023-09-27T12:49:33.628Z,5.93
2023-09-27T12:52:55.388Z,6.47
2023-09-27T12:56:18.672Z,8.50
2023-09-27T12:59:40.475Z,4.07
2023-09-27T13:03:03.527Z,3.95
2023-09-27T13:06:25.301Z,6.00
2023-09-27T13:09:47.013Z,5.80
2023-09-27T13:13:10.898Z,4.75
2023-09-27T13:16:33.217Z,4.13
2023-09-27T13:19:56.275Z,4.00
2023-09-27T13:23:17.865Z,4.37
2023-09-27T13:26:39.383Z,5.17
2023-09-27T13:30:02.244Z,3.30
2023-09-27T13:33:23.819Z,5.70
2023-09-27T13:36:46.468Z,3.87
2023-09-27T13:40:14.121Z,4.37
2023-09-27T13:43:36.511Z,4.00
2023-09-27T13:46:58.738Z,8.43
2023-09-27T13:50:20.198Z,4.83
2023-09-27T13:53:43.248Z,4.33
2023-09-27T13:57:04.771Z,7.53
2023-09-27T14:00:26.879Z,4.27
2023-09-27T14:03:48.579Z,3.87
2023-09-27T14:07:09.855Z,5.83
2023-09-27T14:10:32.725Z,6.17
2023-09-27T14:13:54.580Z,5.37
2023-09-27T14:17:16.124Z,5.57
2023-09-27T14:20:37.732Z,3.40
2023-09-27T14:23:59.348Z,2.90
2023-09-27T14:27:21.969Z,6.10
2023-09-27T14:30:43.589Z,4.00
2023-09-27T14:34:05.525Z,5.13
2023-09-27T14:37:27.111Z,3.53
2023-09-27T14:40:48.895Z,4.53
2023-09-27T14:44:11.946Z,6.93
2023-09-27T14:47:33.759Z,3.47
2023-09-27T14:50:55.148Z,3.23
2023-09-27T14:54:17.257Z,3.10
2023-09-27T14:57:41.922Z,3.27
2023-09-27T15:01:05.563Z,4.10
2023-09-27T15:04:28.373Z,3.30
2023-09-27T15:07:50.452Z,3.30
2023-09-27T15:11:12.013Z,4.13
2023-09-27T15:14:33.524Z,3.67
2023-09-27T15:17:56.413Z,4.33
2023-09-27T15:21:18.553Z,6.03
2023-09-27T15:24:40.233Z,3.63
2023-09-27T15:28:01.578Z,2.70
2023-09-27T15:31:23.390Z,3.87
2023-09-27T15:34:48.856Z,2.60
2023-09-27T15:38:10.277Z,3.90
2023-09-27T15:41:31.941Z,6.23
2023-09-27T15:44:53.273Z,4.67
2023-09-27T15:48:14.523Z,7.40
2023-09-27T15:51:39.050Z,4.60
2023-09-27T15:55:02.635Z,3.13
2023-09-27T15:58:24.078Z,3.80
2023-09-27T16:01:46.288Z,3.20
2023-09-27T16:05:11.806Z,5.60
2023-09-27T16:08:35.236Z,5.40
2023-09-27T16:11:57.088Z,3.37
2023-09-27T16:15:18.445Z,5.13
2023-09-27T16:18:39.848Z,3.07
2023-09-27T16:22:01.361Z,4.67
2023-09-27T16:25:24.908Z,4.17
2023-09-27T16:28:46.279Z,5.17
2023-09-27T16:32:08.331Z,4.60
2023-09-27T16:35:30.319Z,3.20
2023-09-27T16:38:51.981Z,3.27
2023-09-27T16:42:14.892Z,3.40
2023-09-27T16:45:38.187Z,3.50
2023-09-27T16:48:59.702Z,5.30
2023-09-27T16:52:21.834Z,3.93
2023-09-27T16:55:45.595Z,5.20
2023-09-27T16:59:08.319Z,4.63
2023-09-27T17:02:30.025Z,4.57
2023-09-27T17:05:51.362Z,4.13
2023-09-27T17:09:15.080Z,6.30
2023-09-27T17:12:36.632Z,5.97
2023-09-27T17:15:59.495Z,4.23
2023-09-27T17:19:24.738Z,4.70
2023-09-27T17:22:46.294Z,5.07
2023-09-27T17:26:08.011Z,5.37
2023-09-27T17:29:29.415Z,3.57
2023-09-27T17:32:52.756Z,4.63
2023-09-27T17:36:15.051Z,4.50
2023-09-27T17:39:37.284Z,4.77
2023-09-27T17:42:58.644Z,5.80
2023-09-27T17:46:23.349Z,4.17
2023-09-27T17:49:46.964Z,5.13
2023-09-27T17:53:08.620Z,4.80
2023-09-27T17:56:30.111Z,6.43
2023-09-27T17:59:51.745Z,4.27
2023-09-27T18:03:13.189Z,3.47
2023-09-27T18:06:36.045Z,5.33
2023-09-27T18:09:57.474Z,4.60
2023-09-27T18:13:19.745Z,4.53
2023-09-27T18:16:42.629Z,6.17
2023-09-27T18:20:04.158Z,6.90
2023-09-27T18:23:26.891Z,6.47
2023-09-27T18:26:48.372Z,9.13
2023-09-27T18:30:11.014Z,9.67
2023-09-27T18:33:32.499Z,6.00
2023-09-27T18:36:53.922Z,5.27
2023-09-27T18:40:19.701Z,9.03
2023-09-27T18:43:41.293Z,6.10
2023-09-27T18:47:03.267Z,6.13
2023-09-27T18:50:25.203Z,7.07
2023-09-27T18:53:46.638Z,7.20
2023-09-27T18:57:09.283Z,6.47
2023-09-27T19:00:31.862Z,6.67
2023-09-27T19:03:53.838Z,7.53
2023-09-27T19:07:15.846Z,6.47
2023-09-27T19:10:39.087Z,6.53
2023-09-27T19:14:01.954Z,8.53
2023-09-27T19:17:23.346Z,6.10
2023-09-27T19:20:44.753Z,7.07
2023-09-27T19:24:06.650Z,6.30
2023-09-27T19:27:28.038Z,7.57
2023-09-27T19:30:50.974Z,5.77
2023-09-27T19:34:12.514Z,9.57
2023-09-27T19:37:34.023Z,8.73
2023-09-27T19:40:55.644Z,7.27
2023-09-27T19:44:17.776Z,6.60
2023-09-27T19:47:41.463Z,8.63
2023-09-27T19:51:02.993Z,6.03
2023-09-27T19:54:24.454Z,5.40
2023-09-27T19:57:45.789Z,6.30
2023-09-27T20:01:07.209Z,6.33
2023-09-27T20:04:30.467Z,8.27
2023-09-27T20:07:51.848Z,7.57
2023-09-27T20:11:13.279Z,8.17
2023-09-27T20:14:34.712Z,6.87
2023-09-27T20:17:56.261Z,6.90
2023-09-27T20:21:20.537Z,7.10
2023-09-27T20:24:41.969Z,5.97
2023-09-27T20:28:03.548Z,8.93
2023-09-27T20:31:25.455Z,7.17
2023-09-27T20:34:47.360Z,6.03
2023-09-27T20:38:10.410Z,8.83
2023-09-27T20:41:32.004Z,7.40
2023-09-27T20:44:54.120Z,7.53
2023-09-27T20:48:15.813Z,6.90
2023-09-27T20:51:37.226Z,6.63
2023-09-27T20:54:59.902Z,7.47
2023-09-27T20:58:22.457Z,9.20
2023-09-27T21:01:45.099Z,9.40
2023-09-27T21:05:07.027Z,6.83
2023-09-27T21:08:28.662Z,8.07
2023-09-27T21:11:51.735Z,6.60
2023-09-27T21:15:13.388Z,6.93
2023-09-27T21:18:35.061Z,6.07
2023-09-27T21:21:56.702Z,6.07
2023-09-27T21:25:18.609Z,7.07
2023-09-27T21:28:41.988Z,6.03
2023-09-27T21:32:03.631Z,6.67
2023-09-27T21:35:25.286Z,6.80
2023-09-27T21:38:46.945Z,6.00
2023-09-27T21:42:08.274Z,6.23
2023-09-27T21:45:32.138Z,7.50
2023-09-27T21:48:53.463Z,6.40
2023-09-27T21:52:14.813Z,5.70
2023-09-27T21:55:36.513Z,5.80
2023-09-27T21:58:58.189Z,8.73
2023-09-27T22:02:21.041Z,7.43
2023-09-27T22:05:42.834Z,7.27
2023-09-27T22:09:05.661Z,7.37
2023-09-27T22:12:29.218Z,6.93
2023-09-27T22:15:55.814Z,5.93
2023-09-27T22:19:19.101Z,6.30
2023-09-27T22:22:41.558Z,5.87
2023-09-27T22:26:06.872Z,6.10
2023-09-27T22:29:32.616Z,6.70
2023-09-27T22:32:57.105Z,7.57
2023-09-27T22:36:20.075Z,9.23
2023-09-27T22:39:42.057Z,7.90
2023-09-27T22:43:06.294Z,6.73
2023-09-27T22:46:28.927Z,7.57
2023-09-27T22:49:51.031Z,7.60
2023-09-27T22:53:14.635Z,8.03
2023-09-27T22:56:36.579Z,7.53
2023-09-27T22:59:58.208Z,8.07
2023-09-27T23:03:20.020Z,7.20
2023-09-27T23:06:45.844Z,7.70
2023-09-27T23:10:13.101Z,7.80
2023-09-27T23:13:37.179Z,9.03
2023-09-27T23:17:19.151Z,17.77
2023-09-27T23:20:41.051Z,8.00
2023-09-27T23:24:26.531Z,8.53
2023-09-27T23:27:48.958Z,7.93
2023-09-27T23:31:10.908Z,8.30
2023-09-27T23:34:35.656Z,8.50
2023-09-27T23:38:10.265Z,8.47
2023-09-27T23:41:32.372Z,7.70
2023-09-27T23:45:02.944Z,6.93
2023-09-27T23:48:24.748Z,7.83
2023-09-27T23:51:49.267Z,7.10
2023-09-27T23:55:11.200Z,7.77
2023-09-27T23:58:33.703Z,7.20
